Minerva Zenia — SYNB — position and weather

sailwx.info

Track history (hours):
 
Tides and Currents Weather Stations Pressure Air Temp Water Temp Dewpoint Dewpoint Depression Visibility Wind Speed Wind Dir Waves Ship Positions

Minerva Zenia

Last reported at 2014-Aug-03 09:19 UTC. Time now 2014-Sep-17 11:35 UTC.
Position N 38°08' W 030°37'.
Warning: this ship's position is 45 days out of date.

Length 248 m; draft 14 m.

Type: Ship (hazmat cat C). MMSI: 240014000.

Date/timePositionNaut miles runAvg speedWind from/ knotsBaromVisibWave heightAir tempDewpointWater temp
2014-Aug-03 09:19N 38°08' W 030°37'1012.6
2014-Aug-03 08:33N 38°15' W 030°27'1312.7
2014-Aug-03 07:33N 38°23' W 030°16'1312.7
2014-Aug-03 06:33N 38°32' W 030°04'1312.6
2014-Aug-03 05:33N 38°41' W 029°52'1212.4
2014-Aug-03 04:33N 38°49' W 029°41'1312.5
2014-Aug-03 03:33N 38°58' W 029°29'1212.3
2014-Aug-03 02:33N 39°08' W 029°19'1212.2
2014-Aug-03 01:33N 39°18' W 029°11'1212.5
2014-Aug-03 00:33N 39°29' W 029°02'1312.6
2014-Aug-02 23:33N 39°39' W 028°54'1312.7
2014-Aug-02 22:33N 39°50' W 028°45'1212.6
2014-Aug-02 21:33N 40°01' W 028°36'4012.6
2014-Aug-02 18:23N 40°35' W 028°09'1012.5
2014-Aug-02 17:33N 40°44' W 028°01'1712.5
2014-Aug-02 16:09N 40°58' W 027°49'  
Track history (hours):
 
Tides and Currents Weather Stations Pressure Air Temp Water Temp Dewpoint Dewpoint Depression Visibility Wind Speed Wind Dir Waves Ship Positions

Minerva Zenia

Last reported at 2014-Aug-03 09:19 UTC. Time now 2014-Sep-17 11:35 UTC.
Position N 38°08' W 030°37'.
Warning: this ship's position is 45 days out of date.

Length 248 m; draft 14 m.

Type: Ship (hazmat cat C). MMSI: 240014000.

Date/timePositionNaut miles runAvg speedWind from/ knotsBaromVisibWave heightAir tempDewpointWater temp
2014-Aug-03 09:19N 38°08' W 030°37'1012.6
2014-Aug-03 08:33N 38°15' W 030°27'1312.7
2014-Aug-03 07:33N 38°23' W 030°16'1312.7
2014-Aug-03 06:33N 38°32' W 030°04'1312.6
2014-Aug-03 05:33N 38°41' W 029°52'1212.4
2014-Aug-03 04:33N 38°49' W 029°41'1312.5
2014-Aug-03 03:33N 38°58' W 029°29'1212.3
2014-Aug-03 02:33N 39°08' W 029°19'1212.2
2014-Aug-03 01:33N 39°18' W 029°11'1212.5
2014-Aug-03 00:33N 39°29' W 029°02'1312.6
2014-Aug-02 23:33N 39°39' W 028°54'1312.7
2014-Aug-02 22:33N 39°50' W 028°45'1212.6
2014-Aug-02 21:33N 40°01' W 028°36'4012.6
2014-Aug-02 18:23N 40°35' W 028°09'1012.5
2014-Aug-02 17:33N 40°44' W 028°01'1712.5
2014-Aug-02 16:09N 40°58' W 027°49'  

Dump ship's entire track history